Aviation Digital Data Service (ADDS)

Output produced by METARs form (0032 UTC 17 July 2019)
found at http://www.aviationweather.gov/metar/data/
 
EHKD 170027Z AUTO 01002KT 3100 BR NCD 11/11 Q1017 YLO
TAF EHKD 161615Z 1617/1705 28005KT CAVOK 
     BECMG 1620/2623 VRB03KT
       
EHDL 170025Z AUTO 03001KT 9999 BKN320 10/09 Q1017 BLU
EHGG 170025Z AUTO 25002KT 9999 OVC015 14/13 Q1017
TAF COR EHGG 162314Z 1700/1806 30007KT 9999 BKN012 
     TEMPO 1700/1708 6000 BKN008 
     PROB40 
     TEMPO 1700/1705 2000 BR 
     BECMG 1708/1711 SCT016 
     BECMG 1723/1802 4000 BR 
     PROB30 
     TEMPO 1801/1805 1200 BCFG
       
EHEH 170026Z AUTO 25001KT 5000 BR NCD 11/10 Q1017 WHT
TAF EHEH 162328Z 1700/1806 VRB02KT 8000 SCT330 
     TEMPO 1700/1705 4000 BR MIFG 
     BECMG 1719/1722 13005KT
       
EHGR 170029Z AUTO 20001KT 3900 BR NCD 12/12 Q1017 GRN
EHLW 170025Z AUTO VRB02KT 9999 BKN011 OVC014 14/12 Q1017 GRN
TAF EHLW 162013Z 1621/1709 31003KT 9999 BKN010 OVC015
       
EHBK 170025Z AUTO 21003KT 9000 NSC 12/11 Q1017
TAF EHBK 162303Z 1700/1806 VRB03KT CAVOK 
     PROB40 1701/1706 4000 BR MIFG
       
EHRD 170025Z AUTO 32002KT 0250 R24/0350N FG NSC 11/11 Q1017 TEMPO 6000 MIFG
TAF EHRD 162303Z 1700/1806 VRB03KT 4000 MIFG BR NSC 
     PROB40 
     TEMPO 1700/1705 0600 BCFG 
     BECMG 1705/1707 9999 NSW FEW025 
     BECMG 1723/1802 14006KT
       
EHAM 162355Z 03001KT 9999 MIFG NSC 13/12 Q1017 NOSIG
TAF EHAM 162303Z 1700/1806 VRB03KT 9999 MIFG NSC 
     PROB40 
     TEMPO 1700/1705 1500 BCFG 
     BECMG 1722/1801 14006KT
       
EHVK 170026Z AUTO 00000KT 6000 BR FEW330 11/11 Q1017 WHT
TAF EHVK 162016Z 1621/1709 VRB02KT CAVOK
       
EHWO 170025Z AUTO 34001KT 4000 BR NCD 10/10 Q1017 GRN